createdAt,value
2024-05-09T00:00:48.098Z,9.93
2024-05-09T00:03:20.379Z,9.79
2024-05-09T00:05:49.886Z,9.82
2024-05-09T00:08:19.427Z,9.84
2024-05-09T00:10:49.141Z,9.99
2024-05-09T00:13:18.682Z,9.85
2024-05-09T00:15:48.200Z,9.79
2024-05-09T00:18:20.667Z,9.80
2024-05-09T00:20:50.350Z,9.85
2024-05-09T00:23:20.104Z,9.71
2024-05-09T00:25:50.282Z,9.76
2024-05-09T00:28:19.934Z,9.71
2024-05-09T00:30:49.452Z,9.53
2024-05-09T00:33:22.094Z,9.59
2024-05-09T00:35:51.650Z,9.63
2024-05-09T00:38:21.289Z,9.57
2024-05-09T00:40:51.003Z,9.37
2024-05-09T00:43:20.760Z,9.46
2024-05-09T00:45:50.354Z,9.23
2024-05-09T00:48:22.681Z,9.12
2024-05-09T00:50:55.855Z,9.24
2024-05-09T00:53:26.647Z,9.31
2024-05-09T00:55:59.536Z,9.05
2024-05-09T00:58:31.763Z,9.13
2024-05-09T01:01:02.700Z,9.17
2024-05-09T01:03:38.714Z,9.25
2024-05-09T01:06:08.883Z,8.86
2024-05-09T01:08:38.501Z,8.87
2024-05-09T01:11:08.743Z,9.10
2024-05-09T01:13:38.282Z,9.10
2024-05-09T01:16:08.812Z,9.11
2024-05-09T01:18:41.056Z,9.01
2024-05-09T01:21:10.630Z,8.82
2024-05-09T01:23:43.499Z,8.90
2024-05-09T01:26:13.018Z,8.85
2024-05-09T01:28:42.619Z,8.93
2024-05-09T01:31:15.824Z,8.96
2024-05-09T01:33:45.444Z,8.92
2024-05-09T01:36:15.291Z,8.83
2024-05-09T01:38:47.819Z,8.87
2024-05-09T01:41:17.304Z,8.85
2024-05-09T01:43:46.838Z,8.68
2024-05-09T01:46:17.409Z,8.61
2024-05-09T01:48:47.157Z,8.50
2024-05-09T01:51:16.810Z,8.58
2024-05-09T01:53:49.004Z,8.54
2024-05-09T01:56:18.508Z,8.58
2024-05-09T01:58:48.052Z,8.51
2024-05-09T02:01:18.027Z,8.62
2024-05-09T02:03:48.263Z,8.57
2024-05-09T02:06:17.978Z,8.51
2024-05-09T02:08:50.968Z,8.48
2024-05-09T02:11:20.723Z,8.50
2024-05-09T02:13:50.371Z,8.66
2024-05-09T02:16:19.824Z,8.28
2024-05-09T02:18:49.779Z,8.34
2024-05-09T02:21:19.241Z,8.36
2024-05-09T02:23:51.509Z,8.43
2024-05-09T02:26:21.253Z,8.35
2024-05-09T02:28:50.951Z,8.34
2024-05-09T02:31:20.466Z,8.32
2024-05-09T02:33:50.594Z,8.42
2024-05-09T02:36:18.044Z,8.40
2024-05-09T02:38:47.639Z,8.48
2024-05-09T02:41:17.212Z,8.24
2024-05-09T02:43:47.022Z,7.98
2024-05-09T02:46:13.955Z,8.24
2024-05-09T02:48:43.470Z,8.34
2024-05-09T02:51:10.561Z,8.27
2024-05-09T02:53:40.281Z,8.15
2024-05-09T02:56:07.719Z,8.27
2024-05-09T02:58:39.829Z,8.19
2024-05-09T03:01:06.792Z,8.10
2024-05-09T03:03:36.581Z,8.05
2024-05-09T03:06:03.741Z,8.01
2024-05-09T03:08:33.601Z,7.83
2024-05-09T03:11:00.648Z,7.90
2024-05-09T03:13:30.275Z,7.84
2024-05-09T03:15:59.915Z,7.82
2024-05-09T03:18:29.472Z,7.84
2024-05-09T03:20:56.642Z,7.90
2024-05-09T03:23:26.214Z,7.26
2024-05-09T03:25:54.355Z,7.59
2024-05-09T03:28:24.057Z,7.62
2024-05-09T03:30:50.960Z,7.42
2024-05-09T03:33:23.392Z,7.37
2024-05-09T03:35:50.893Z,7.66
2024-05-09T03:38:20.472Z,7.75
2024-05-09T03:40:49.033Z,7.77
2024-05-09T03:43:19.984Z,7.74
2024-05-09T03:45:51.633Z,7.52
2024-05-09T03:48:21.641Z,7.69
2024-05-09T03:50:52.049Z,7.62
2024-05-09T03:53:20.423Z,7.39
2024-05-09T03:55:50.028Z,7.40
2024-05-09T03:58:16.991Z,7.52
2024-05-09T04:00:47.018Z,7.49
2024-05-09T04:03:14.118Z,7.50
2024-05-09T04:05:47.066Z,7.51
2024-05-09T04:08:14.871Z,7.39
2024-05-09T04:10:44.776Z,7.50
2024-05-09T04:13:11.863Z,7.21
2024-05-09T04:15:41.450Z,7.31
2024-05-09T04:18:08.642Z,7.35
2024-05-09T04:20:40.544Z,7.26
2024-05-09T04:23:12.848Z,7.30
2024-05-09T04:25:45.615Z,7.52
2024-05-09T04:28:13.083Z,7.51
2024-05-09T04:30:43.348Z,7.47
2024-05-09T04:33:14.824Z,7.31
2024-05-09T04:35:42.962Z,7.42
2024-05-09T04:38:16.171Z,7.49
2024-05-09T04:40:43.401Z,7.20
2024-05-09T04:43:19.027Z,7.29
2024-05-09T04:45:46.755Z,7.38
2024-05-09T04:48:16.797Z,7.42
2024-05-09T04:50:44.180Z,7.40
2024-05-09T04:53:18.393Z,7.42
2024-05-09T04:55:45.862Z,7.31
2024-05-09T04:58:15.772Z,7.40
2024-05-09T05:00:42.991Z,7.30
2024-05-09T05:03:15.754Z,7.47
2024-05-09T05:05:45.193Z,7.55
2024-05-09T05:08:19.642Z,7.32
2024-05-09T05:10:47.976Z,7.11
2024-05-09T05:13:20.449Z,7.41
2024-05-09T05:15:49.439Z,7.50
2024-05-09T05:18:19.677Z,7.47
2024-05-09T05:20:47.102Z,7.46
2024-05-09T05:23:22.204Z,7.65
2024-05-09T05:25:53.622Z,7.67
2024-05-09T05:28:24.167Z,7.22
2024-05-09T05:30:51.106Z,7.53
2024-05-09T05:33:22.383Z,7.63
2024-05-09T05:35:49.813Z,7.72
2024-05-09T05:38:25.059Z,7.76
2024-05-09T05:40:54.659Z,8.04
2024-05-09T05:43:24.219Z,8.03
2024-05-09T05:45:51.093Z,7.88
2024-05-09T05:48:20.954Z,8.00
2024-05-09T05:50:48.017Z,8.15
2024-05-09T05:53:17.809Z,8.03
2024-05-09T05:55:47.416Z,7.81
2024-05-09T05:58:17.396Z,8.21
2024-05-09T06:00:44.669Z,8.35
2024-05-09T06:03:14.890Z,8.34
2024-05-09T06:05:44.182Z,8.36
2024-05-09T06:08:14.623Z,8.47
2024-05-09T06:10:42.541Z,8.61
2024-05-09T06:13:15.764Z,8.63
2024-05-09T06:15:43.537Z,8.76
2024-05-09T06:18:13.736Z,8.81
2024-05-09T06:20:42.324Z,8.62
2024-05-09T06:23:13.373Z,8.90
2024-05-09T06:25:42.292Z,8.72
2024-05-09T06:28:14.673Z,8.97
2024-05-09T06:30:43.045Z,9.12
2024-05-09T06:33:15.845Z,9.22
2024-05-09T06:35:43.999Z,9.35
2024-05-09T06:38:13.775Z,9.58
2024-05-09T06:40:42.801Z,9.71
2024-05-09T06:43:18.853Z,9.58
2024-05-09T06:45:48.206Z,9.86
2024-05-09T06:48:21.623Z,9.83
2024-05-09T06:50:49.558Z,9.70
2024-05-09T06:53:19.953Z,9.98
2024-05-09T06:55:49.910Z,10.02
2024-05-09T06:58:19.561Z,10.44
2024-05-09T07:00:49.240Z,10.44
2024-05-09T07:03:18.319Z,10.41
2024-05-09T07:05:49.980Z,10.59
2024-05-09T07:08:17.511Z,10.77
2024-05-09T07:10:47.631Z,11.08
2024-05-09T07:13:15.477Z,11.03
2024-05-09T07:15:48.034Z,11.12
2024-05-09T07:18:17.848Z,11.16
2024-05-09T07:20:49.462Z,11.35
2024-05-09T07:23:17.754Z,11.50
2024-05-09T07:25:47.769Z,11.66
2024-05-09T07:28:16.391Z,11.68
2024-05-09T07:30:48.764Z,11.67
2024-05-09T07:33:16.543Z,11.82
2024-05-09T07:35:46.466Z,12.19
2024-05-09T07:38:13.746Z,12.54
2024-05-09T07:40:43.466Z,12.73
2024-05-09T07:43:11.580Z,12.86
2024-05-09T07:45:50.491Z,12.82
2024-05-09T07:52:42.893Z,13.13
2024-05-09T07:53:48.293Z,13.16
2024-05-09T07:56:22.895Z,13.46
2024-05-09T07:58:51.458Z,13.59
2024-05-09T08:01:21.705Z,13.79
2024-05-09T08:03:52.755Z,13.86
2024-05-09T08:06:22.443Z,13.88
2024-05-09T08:08:49.566Z,13.64
2024-05-09T08:11:19.684Z,13.97
2024-05-09T08:13:46.649Z,13.74
2024-05-09T08:16:16.776Z,14.27
2024-05-09T08:18:43.775Z,13.96
2024-05-09T08:21:15.997Z,13.68
2024-05-09T08:23:42.847Z,14.21
2024-05-09T08:26:13.222Z,14.27
2024-05-09T08:28:40.234Z,14.63
2024-05-09T08:31:10.386Z,14.42
2024-05-09T08:33:37.638Z,14.47
2024-05-09T08:36:07.323Z,14.85
2024-05-09T08:38:36.841Z,15.02
2024-05-09T08:41:07.015Z,15.21
2024-05-09T08:43:34.644Z,15.62
2024-05-09T08:46:07.587Z,15.02
2024-05-09T08:48:37.010Z,15.23
2024-05-09T08:51:08.639Z,15.31
2024-05-09T08:53:38.139Z,14.87
2024-05-09T08:56:12.360Z,14.91
2024-05-09T08:58:40.606Z,15.20
2024-05-09T09:01:10.595Z,15.87
2024-05-09T09:03:38.613Z,15.97
2024-05-09T09:06:09.922Z,16.20
2024-05-09T09:08:39.831Z,15.94
2024-05-09T09:11:09.521Z,15.72
2024-05-09T09:13:36.578Z,14.93
2024-05-09T09:16:06.800Z,15.55
2024-05-09T09:18:34.524Z,15.74
2024-05-09T09:21:04.843Z,16.03
2024-05-09T09:23:31.900Z,16.10
2024-05-09T09:26:04.274Z,16.26
2024-05-09T09:28:31.390Z,16.38
2024-05-09T09:31:04.400Z,16.48
2024-05-09T09:33:32.093Z,16.65
2024-05-09T09:36:01.989Z,16.55
2024-05-09T09:38:31.607Z,17.22
2024-05-09T09:41:07.903Z,16.76
2024-05-09T09:43:36.588Z,17.22
2024-05-09T09:46:09.739Z,17.22
2024-05-09T09:48:40.518Z,17.12
2024-05-09T09:51:10.975Z,17.14
2024-05-09T09:53:38.772Z,17.56
2024-05-09T09:56:13.517Z,17.81
2024-05-09T09:58:42.335Z,17.93
2024-05-09T10:01:11.972Z,16.39
2024-05-09T10:03:39.260Z,16.84
2024-05-09T10:06:11.168Z,17.38
2024-05-09T10:08:38.591Z,17.23
2024-05-09T10:11:12.101Z,17.32
2024-05-09T10:13:42.053Z,17.64
2024-05-09T10:16:14.191Z,18.07
2024-05-09T10:18:41.806Z,18.00
2024-05-09T10:21:18.688Z,18.50
2024-05-09T10:23:57.640Z,18.24
2024-05-09T10:26:35.976Z,18.41
2024-05-09T10:29:11.383Z,18.79
2024-05-09T10:31:43.772Z,17.84
2024-05-09T10:34:17.742Z,17.67
2024-05-09T10:36:47.463Z,18.59
2024-05-09T10:39:14.452Z,19.45
2024-05-09T10:41:46.605Z,19.51
2024-05-09T10:44:15.199Z,18.74
2024-05-09T10:46:45.197Z,18.91
2024-05-09T10:49:14.258Z,19.10
2024-05-09T10:51:44.467Z,19.18
2024-05-09T10:54:11.448Z,19.62
2024-05-09T10:56:41.944Z,19.26
2024-05-09T10:59:12.921Z,18.95
2024-05-09T11:01:43.081Z,19.78
2024-05-09T11:04:10.462Z,19.59
2024-05-09T11:06:40.618Z,20.38
2024-05-09T11:09:07.815Z,20.71
2024-05-09T11:11:37.437Z,20.29
2024-05-09T11:14:14.289Z,20.56
2024-05-09T11:16:43.913Z,19.66
2024-05-09T11:19:15.377Z,19.43
2024-05-09T11:21:42.432Z,19.61
2024-05-09T11:24:12.106Z,20.35
2024-05-09T11:26:39.082Z,20.66
2024-05-09T11:29:08.612Z,20.72
2024-05-09T11:31:47.923Z,19.81
2024-05-09T11:34:17.747Z,19.22
2024-05-09T11:36:44.720Z,20.08
2024-05-09T11:39:14.743Z,20.01
2024-05-09T11:41:41.772Z,20.76
2024-05-09T11:44:11.513Z,21.69
2024-05-09T11:46:38.487Z,22.16
2024-05-09T11:49:11.842Z,22.69
2024-05-09T11:51:39.012Z,22.93
2024-05-09T11:54:08.783Z,21.91
2024-05-09T11:56:36.030Z,22.01
2024-05-09T11:59:05.991Z,21.67
2024-05-09T12:01:33.132Z,22.44
2024-05-09T12:04:03.052Z,22.23
2024-05-09T12:06:33.138Z,22.94
2024-05-09T12:09:02.705Z,22.01
2024-05-09T12:11:29.670Z,21.22
2024-05-09T12:13:59.172Z,20.55
2024-05-09T12:16:26.416Z,20.84
2024-05-09T12:18:56.219Z,21.62
2024-05-09T12:21:23.666Z,22.62
2024-05-09T12:23:55.813Z,22.88
2024-05-09T12:26:22.839Z,23.92
2024-05-09T12:28:52.353Z,23.97
2024-05-09T12:31:19.308Z,22.95
2024-05-09T12:33:48.958Z,23.12
2024-05-09T12:36:15.958Z,23.69
2024-05-09T12:38:45.388Z,23.95
2024-05-09T12:41:14.879Z,24.84
2024-05-09T12:43:44.383Z,24.94
2024-05-09T12:46:11.393Z,25.26
2024-05-09T12:48:41.183Z,24.38
2024-05-09T12:51:08.230Z,24.02
2024-05-09T12:53:38.819Z,23.25
2024-05-09T12:56:08.827Z,23.86
2024-05-09T12:58:41.745Z,24.64
2024-05-09T13:01:08.759Z,24.74
2024-05-09T13:03:38.566Z,24.32
2024-05-09T13:06:06.042Z,25.04
2024-05-09T13:08:35.603Z,25.01
2024-05-09T13:11:02.532Z,25.61
2024-05-09T13:13:32.026Z,24.55
2024-05-09T13:16:01.738Z,23.64
2024-05-09T13:18:33.428Z,24.19
2024-05-09T13:21:00.495Z,24.86
2024-05-09T13:23:30.025Z,24.34
2024-05-09T13:25:57.059Z,23.31
2024-05-09T13:28:26.848Z,23.36
2024-05-09T13:30:53.905Z,23.13
2024-05-09T13:33:26.179Z,23.61
2024-05-09T13:35:53.513Z,23.27
2024-05-09T13:38:23.166Z,24.11
2024-05-09T13:40:50.890Z,24.92
2024-05-09T13:43:22.018Z,24.93
2024-05-09T13:46:01.037Z,25.32
2024-05-09T13:48:28.020Z,25.44
2024-05-09T13:50:57.632Z,25.29
2024-05-09T13:53:25.299Z,24.17
2024-05-09T13:55:57.972Z,24.38
2024-05-09T13:58:25.010Z,23.60
2024-05-09T14:00:54.630Z,24.22
2024-05-09T14:03:24.718Z,23.30
2024-05-09T14:05:54.440Z,22.81
2024-05-09T14:08:22.730Z,22.90
2024-05-09T14:10:53.743Z,23.50
2024-05-09T14:13:21.120Z,23.25
2024-05-09T14:15:51.087Z,23.87
2024-05-09T14:18:18.620Z,24.23
2024-05-09T14:20:51.083Z,23.74
2024-05-09T14:23:19.069Z,24.34
2024-05-09T14:25:52.375Z,24.53
2024-05-09T14:28:20.340Z,23.87
2024-05-09T14:30:49.994Z,23.66
2024-05-09T14:33:23.508Z,22.52
2024-05-09T14:35:56.213Z,23.04
2024-05-09T14:38:23.287Z,23.15
2024-05-09T14:40:53.461Z,23.27
2024-05-09T14:43:20.719Z,23.45
2024-05-09T14:45:50.778Z,23.31
2024-05-09T14:48:20.094Z,22.45
2024-05-09T14:50:50.318Z,22.02
2024-05-09T14:53:20.288Z,22.52
2024-05-09T14:55:49.997Z,22.30
2024-05-09T14:58:17.427Z,22.48
2024-05-09T15:00:51.250Z,22.19
2024-05-09T15:03:19.713Z,21.96
2024-05-09T15:05:51.068Z,22.17
2024-05-09T15:08:21.381Z,21.26
2024-05-09T15:10:52.143Z,21.56
2024-05-09T15:13:19.674Z,22.11
2024-05-09T15:15:49.764Z,21.93
2024-05-09T15:18:16.959Z,21.47
2024-05-09T15:20:47.078Z,21.27
2024-05-09T15:23:14.044Z,21.61
2024-05-09T15:25:47.128Z,21.85
2024-05-09T15:28:14.046Z,21.82
2024-05-09T15:30:46.356Z,21.13
2024-05-09T15:33:14.460Z,21.61
2024-05-09T15:35:46.605Z,21.44
2024-05-09T15:38:14.436Z,21.20
2024-05-09T15:40:47.067Z,21.15
2024-05-09T15:43:14.306Z,21.08
2024-05-09T15:45:44.035Z,20.74
2024-05-09T15:48:11.891Z,20.91
2024-05-09T15:50:42.701Z,20.91
2024-05-09T15:53:11.131Z,21.13
2024-05-09T15:55:41.544Z,20.61
2024-05-09T15:58:12.270Z,20.65
2024-05-09T16:00:45.590Z,20.44
2024-05-09T16:03:14.920Z,20.32
2024-05-09T16:05:47.003Z,20.46
2024-05-09T16:08:15.745Z,20.19
2024-05-09T16:10:46.545Z,20.54
2024-05-09T16:13:17.729Z,20.77
2024-05-09T16:15:48.365Z,20.30
2024-05-09T16:18:15.972Z,19.81
2024-05-09T16:20:48.397Z,19.60
2024-05-09T16:23:17.173Z,19.63
2024-05-09T16:25:48.034Z,19.58
2024-05-09T16:28:18.712Z,19.98
2024-05-09T16:30:48.556Z,19.74
2024-05-09T16:33:19.066Z,19.68
2024-05-09T16:35:49.250Z,19.67
2024-05-09T16:38:16.218Z,19.37
2024-05-09T16:40:46.227Z,19.26
2024-05-09T16:43:13.768Z,19.47
2024-05-09T16:45:47.103Z,19.68
2024-05-09T16:48:14.686Z,19.07
2024-05-09T16:50:44.324Z,18.98
2024-05-09T16:53:11.434Z,19.14
2024-05-09T16:55:40.930Z,19.24
2024-05-09T16:58:08.574Z,19.38
2024-05-09T17:00:42.329Z,19.27
2024-05-09T17:03:15.354Z,19.37
2024-05-09T17:05:47.232Z,19.23
2024-05-09T17:08:15.750Z,19.29
2024-05-09T17:10:45.491Z,19.50
2024-05-09T17:13:15.207Z,19.66
2024-05-09T17:15:44.805Z,19.45
2024-05-09T17:18:17.570Z,18.98
2024-05-09T17:20:47.132Z,18.88
2024-05-09T17:23:14.537Z,18.55
2024-05-09T17:25:45.115Z,18.32
2024-05-09T17:28:12.609Z,18.71
2024-05-09T17:30:43.962Z,18.30
2024-05-09T17:33:21.138Z,18.49
2024-05-09T17:35:54.175Z,18.38
2024-05-09T17:38:30.775Z,18.29
2024-05-09T17:41:00.453Z,18.21
2024-05-09T17:43:28.798Z,18.25
2024-05-09T17:45:59.132Z,18.20
2024-05-09T17:48:28.768Z,17.94
2024-05-09T17:50:58.700Z,17.98
2024-05-09T17:53:25.680Z,18.26
2024-05-09T17:55:56.558Z,17.93
2024-05-09T17:58:25.615Z,17.87
2024-05-09T18:00:57.858Z,17.95
2024-05-09T18:03:25.138Z,17.94
2024-05-09T18:05:58.071Z,18.06
2024-05-09T18:08:25.269Z,17.58
2024-05-09T18:10:55.586Z,17.81
2024-05-09T18:13:23.029Z,17.96
2024-05-09T18:15:52.879Z,17.92
2024-05-09T18:18:20.011Z,18.13
2024-05-09T18:20:49.692Z,18.05
2024-05-09T18:23:19.620Z,17.90
2024-05-09T18:25:49.403Z,17.95
2024-05-09T18:28:17.164Z,18.12
2024-05-09T18:30:47.388Z,18.13
2024-05-09T18:33:14.571Z,17.72
2024-05-09T18:35:46.109Z,17.53
2024-05-09T18:38:13.254Z,17.48
2024-05-09T18:40:48.362Z,16.85
2024-05-09T18:43:16.671Z,16.29
2024-05-09T18:45:46.584Z,16.51
2024-05-09T18:48:13.770Z,16.55
2024-05-09T18:50:44.006Z,16.42
2024-05-09T18:53:12.643Z,16.59
2024-05-09T18:55:45.606Z,16.11
2024-05-09T18:58:12.662Z,15.43
2024-05-09T19:00:45.313Z,15.16
2024-05-09T19:03:15.195Z,15.09
2024-05-09T19:05:46.340Z,14.97
2024-05-09T19:08:14.906Z,14.79
2024-05-09T19:10:47.905Z,14.98
2024-05-09T19:13:15.299Z,14.91
2024-05-09T19:15:45.677Z,14.86
2024-05-09T19:18:14.023Z,14.65
2024-05-09T19:20:44.437Z,14.85
2024-05-09T19:23:11.654Z,14.59
2024-05-09T19:25:41.421Z,14.08
2024-05-09T19:28:11.248Z,13.82
2024-05-09T19:30:42.722Z,13.82
2024-05-09T19:33:12.439Z,14.15
2024-05-09T19:35:43.615Z,14.61
2024-05-09T19:38:12.046Z,14.70
2024-05-09T19:40:41.878Z,14.70
2024-05-09T19:43:11.728Z,14.84
2024-05-09T19:45:41.533Z,14.87
2024-05-09T19:48:09.081Z,14.92
2024-05-09T19:50:43.158Z,14.88
2024-05-09T19:53:12.550Z,15.08
2024-05-09T19:55:42.524Z,14.82
2024-05-09T19:58:12.980Z,14.92
2024-05-09T20:00:44.296Z,14.81
2024-05-09T20:03:14.483Z,14.83
2024-05-09T20:05:45.541Z,14.53
2024-05-09T20:08:13.216Z,14.71
2024-05-09T20:10:43.054Z,14.56
2024-05-09T20:13:13.675Z,14.67
2024-05-09T20:15:43.513Z,14.67
2024-05-09T20:18:10.954Z,14.71
2024-05-09T20:20:43.087Z,14.54
2024-05-09T20:23:12.442Z,14.23
2024-05-09T20:25:42.096Z,14.28
2024-05-09T20:28:09.947Z,14.23
2024-05-09T20:30:43.138Z,14.31
2024-05-09T20:33:10.715Z,14.45
2024-05-09T20:35:40.470Z,13.93
2024-05-09T20:38:07.707Z,13.77
2024-05-09T20:40:39.162Z,14.05
2024-05-09T20:43:08.036Z,14.04
2024-05-09T20:45:38.266Z,13.84
2024-05-09T20:48:09.831Z,14.02
2024-05-09T20:50:41.972Z,14.05
2024-05-09T20:53:11.193Z,13.93
2024-05-09T20:55:41.320Z,13.85
2024-05-09T20:58:08.480Z,13.40
2024-05-09T21:00:42.083Z,13.25
2024-05-09T21:03:16.488Z,13.25
2024-05-09T21:05:47.582Z,13.37
2024-05-09T21:08:15.245Z,13.39
2024-05-09T21:10:44.915Z,13.32
2024-05-09T21:13:12.015Z,12.95
2024-05-09T21:15:41.570Z,13.20
2024-05-09T21:18:08.617Z,13.02
2024-05-09T21:20:41.623Z,13.02
2024-05-09T21:23:08.749Z,13.25
2024-05-09T21:25:38.215Z,13.16
2024-05-09T21:28:05.812Z,13.09
2024-05-09T21:30:41.510Z,13.15
2024-05-09T21:33:12.261Z,12.95
2024-05-09T21:35:46.195Z,12.86
2024-05-09T21:38:14.804Z,12.97
2024-05-09T21:40:45.512Z,12.91
2024-05-09T21:43:12.756Z,12.84
2024-05-09T21:45:42.506Z,12.76
2024-05-09T21:48:09.661Z,12.88
2024-05-09T21:50:41.658Z,12.83
2024-05-09T21:53:13.034Z,12.75
2024-05-09T21:55:43.401Z,12.61
2024-05-09T21:58:11.543Z,12.50
2024-05-09T22:00:42.979Z,12.34
2024-05-09T22:03:11.196Z,12.31
2024-05-09T22:05:44.283Z,12.38
2024-05-09T22:08:14.268Z,12.49
2024-05-09T22:10:43.986Z,12.26
2024-05-09T22:13:11.001Z,12.02
2024-05-09T22:15:41.557Z,12.20
2024-05-09T22:18:10.350Z,12.21
2024-05-09T22:20:45.768Z,12.06
2024-05-09T22:23:16.159Z,12.13
2024-05-09T22:25:45.719Z,12.18
2024-05-09T22:28:15.748Z,12.16
2024-05-09T22:30:47.162Z,12.26
2024-05-09T22:33:15.369Z,12.00
2024-05-09T22:35:45.323Z,12.05
2024-05-09T22:38:12.295Z,12.02
2024-05-09T22:40:48.417Z,12.13
2024-05-09T22:43:19.805Z,11.71
2024-05-09T22:45:50.049Z,11.81
2024-05-09T22:48:17.564Z,11.73
2024-05-09T22:50:47.804Z,11.73
2024-05-09T22:53:15.374Z,11.55
2024-05-09T22:55:47.441Z,11.48
2024-05-09T22:58:14.616Z,11.04
2024-05-09T23:00:44.386Z,11.21
2024-05-09T23:03:11.744Z,11.28
2024-05-09T23:05:41.336Z,11.42
2024-05-09T23:08:08.612Z,11.45
2024-05-09T23:10:38.613Z,11.55
2024-05-09T23:13:08.691Z,11.39
2024-05-09T23:15:39.274Z,11.34
2024-05-09T23:18:07.365Z,11.26
2024-05-09T23:20:39.431Z,11.32
2024-05-09T23:23:07.900Z,11.04
2024-05-09T23:25:38.077Z,10.99
2024-05-09T23:28:05.998Z,11.15
2024-05-09T23:30:40.619Z,11.08
2024-05-09T23:33:10.498Z,11.14
2024-05-09T23:35:40.566Z,11.14
2024-05-09T23:38:07.548Z,11.14
2024-05-09T23:40:40.019Z,11.03
2024-05-09T23:43:09.213Z,10.89
2024-05-09T23:45:42.139Z,10.66
2024-05-09T23:48:10.066Z,10.45
2024-05-09T23:50:40.728Z,10.72
2024-05-09T23:53:09.536Z,10.46
2024-05-09T23:55:39.987Z,10.54
2024-05-09T23:58:07.206Z,10.57
